sensor_id;sensor_type;location;lat;lon;timestamp;temperature;humidity
55203;DHT22;41077;52.956;6.796;2023-05-29T06:00:32;21.70;90.60
55203;DHT22;41077;52.956;6.796;2023-05-29T06:02:57;11.40;99.90
55203;DHT22;41077;52.956;6.796;2023-05-29T06:05:23;11.30;99.90
55203;DHT22;41077;52.956;6.796;2023-05-29T06:07:49;11.40;99.90
55203;DHT22;41077;52.956;6.796;2023-05-29T06:10:14;11.40;99.90
55203;DHT22;41077;52.956;6.796;2023-05-29T06:46:47;11.50;99.90
55203;DHT22;41077;52.956;6.796;2023-05-29T06:49:13;12.40;99.90
55203;DHT22;41077;52.956;6.796;2023-05-29T06:51:38;12.40;99.90
55203;DHT22;41077;52.956;6.796;2023-05-29T07:06:18;12.40;99.90
55203;DHT22;41077;52.956;6.796;2023-05-29T07:08:43;12.80;99.90
55203;DHT22;41077;52.956;6.796;2023-05-29T07:11:09;12.80;99.90
55203;DHT22;41077;52.956;6.796;2023-05-29T07:13:35;12.80;99.90
55203;DHT22;41077;52.956;6.796;2023-05-29T07:16:01;12.80;99.90
55203;DHT22;41077;52.956;6.796;2023-05-29T07:18:27;13.00;99.90
55203;DHT22;41077;52.956;6.796;2023-05-29T07:20:53;13.00;99.90
55203;DHT22;41077;52.956;6.796;2023-05-29T07:23:19;13.10;99.90
55203;DHT22;41077;52.956;6.796;2023-05-29T07:25:45;13.10;99.90
55203;DHT22;41077;52.956;6.796;2023-05-29T07:28:10;13.10;99.90
55203;DHT22;41077;52.956;6.796;2023-05-29T07:30:36;13.10;99.90
55203;DHT22;41077;52.956;6.796;2023-05-29T07:33:01;13.00;99.90
55203;DHT22;41077;52.956;6.796;2023-05-29T07:35:27;12.90;99.90
55203;DHT22;41077;52.956;6.796;2023-05-29T07:37:53;13.00;99.90
55203;DHT22;41077;52.956;6.796;2023-05-29T07:40:19;13.10;99.90
55203;DHT22;41077;52.956;6.796;2023-05-29T07:42:45;13.30;99.90
55203;DHT22;41077;52.956;6.796;2023-05-29T07:45:10;13.30;99.90
55203;DHT22;41077;52.956;6.796;2023-05-29T07:47:36;13.30;99.90
55203;DHT22;41077;52.956;6.796;2023-05-29T07:50:02;13.40;99.90
55203;DHT22;41077;52.956;6.796;2023-05-29T07:52:28;13.40;99.90
55203;DHT22;41077;52.956;6.796;2023-05-29T07:54:54;13.60;99.90
55203;DHT22;41077;52.956;6.796;2023-05-29T07:57:19;13.70;99.90
55203;DHT22;41077;52.956;6.796;2023-05-29T07:59:45;13.60;99.90
55203;DHT22;41077;52.956;6.796;2023-05-29T08:02:15;13.70;99.90
55203;DHT22;41077;52.956;6.796;2023-05-29T08:04:40;13.80;99.90
55203;DHT22;41077;52.956;6.796;2023-05-29T08:07:06;13.70;99.90
55203;DHT22;41077;52.956;6.796;2023-05-29T08:09:32;13.80;99.90
55203;DHT22;41077;52.956;6.796;2023-05-29T08:11:58;13.80;99.90
55203;DHT22;41077;52.956;6.796;2023-05-29T08:14:25;13.80;99.90
55203;DHT22;41077;52.956;6.796;2023-05-29T08:16:51;13.90;99.90
55203;DHT22;41077;52.956;6.796;2023-05-29T08:19:17;13.90;99.90
55203;DHT22;41077;52.956;6.796;2023-05-29T08:21:43;13.90;99.90
55203;DHT22;41077;52.956;6.796;2023-05-29T08:24:08;14.00;99.90
55203;DHT22;41077;52.956;6.796;2023-05-29T08:26:34;14.10;99.90
55203;DHT22;41077;52.956;6.796;2023-05-29T08:29:00;14.20;99.90
55203;DHT22;41077;52.956;6.796;2023-05-29T08:31:26;14.30;99.90
55203;DHT22;41077;52.956;6.796;2023-05-29T08:33:53;14.50;99.90
55203;DHT22;41077;52.956;6.796;2023-05-29T08:36:19;14.60;99.90
55203;DHT22;41077;52.956;6.796;2023-05-29T08:38:50;14.60;99.90
55203;DHT22;41077;52.956;6.796;2023-05-29T08:41:34;14.70;99.90
55203;DHT22;41077;52.956;6.796;2023-05-29T08:44:03;14.70;99.90
55203;DHT22;41077;52.956;6.796;2023-05-29T08:46:32;14.80;99.90
55203;DHT22;41077;52.956;6.796;2023-05-29T08:48:58;14.80;99.90
55203;DHT22;41077;52.956;6.796;2023-05-29T08:51:30;14.70;99.90
55203;DHT22;41077;52.956;6.796;2023-05-29T08:53:56;14.80;99.90
55203;DHT22;41077;52.956;6.796;2023-05-29T08:56:22;14.90;99.90
55203;DHT22;41077;52.956;6.796;2023-05-29T08:58:48;14.90;99.90
55203;DHT22;41077;52.956;6.796;2023-05-29T09:01:16;14.90;99.90
55203;DHT22;41077;52.956;6.796;2023-05-29T09:03:42;14.90;99.90
55203;DHT22;41077;52.956;6.796;2023-05-29T09:06:08;15.00;99.90
55203;DHT22;41077;52.956;6.796;2023-05-29T09:08:37;15.10;99.90
55203;DHT22;41077;52.956;6.796;2023-05-29T09:11:04;15.00;99.90
55203;DHT22;41077;52.956;6.796;2023-05-29T09:13:29;15.10;99.90
55203;DHT22;41077;52.956;6.796;2023-05-29T09:15:59;15.00;99.90
55203;DHT22;41077;52.956;6.796;2023-05-29T09:18:29;14.90;99.90
55203;DHT22;41077;52.956;6.796;2023-05-29T09:20:56;14.80;99.90
55203;DHT22;41077;52.956;6.796;2023-05-29T09:23:22;14.80;99.90
55203;DHT22;41077;52.956;6.796;2023-05-29T09:25:52;14.80;99.90
55203;DHT22;41077;52.956;6.796;2023-05-29T09:28:18;14.80;99.90
55203;DHT22;41077;52.956;6.796;2023-05-29T09:30:46;15.00;99.90
55203;DHT22;41077;52.956;6.796;2023-05-29T09:33:14;15.10;99.90
55203;DHT22;41077;52.956;6.796;2023-05-29T09:38:06;15.00;99.90
55203;DHT22;41077;52.956;6.796;2023-05-29T09:40:36;15.00;99.90
55203;DHT22;41077;52.956;6.796;2023-05-29T09:43:10;15.10;99.90
55203;DHT22;41077;52.956;6.796;2023-05-29T09:45:40;15.30;99.90
55203;DHT22;41077;52.956;6.796;2023-05-29T09:48:12;15.30;99.90
55203;DHT22;41077;52.956;6.796;2023-05-29T09:50:39;15.30;99.90
55203;DHT22;41077;52.956;6.796;2023-05-29T09:53:22;15.30;99.90
55203;DHT22;41077;52.956;6.796;2023-05-29T09:55:55;15.40;99.90
55203;DHT22;41077;52.956;6.796;2023-05-29T09:58:25;15.60;99.90
55203;DHT22;41077;52.956;6.796;2023-05-29T10:00:51;15.60;99.90
55203;DHT22;41077;52.956;6.796;2023-05-29T10:03:18;15.70;99.90
55203;DHT22;41077;52.956;6.796;2023-05-29T10:05:50;15.70;99.90
55203;DHT22;41077;52.956;6.796;2023-05-29T10:08:18;15.80;99.90
55203;DHT22;41077;52.956;6.796;2023-05-29T10:10:46;15.70;99.90
55203;DHT22;41077;52.956;6.796;2023-05-29T10:13:14;15.80;99.90
55203;DHT22;41077;52.956;6.796;2023-05-29T10:15:47;15.70;99.90
55203;DHT22;41077;52.956;6.796;2023-05-29T10:18:35;15.80;99.40
55203;DHT22;41077;52.956;6.796;2023-05-29T10:21:03;15.90;99.20
55203;DHT22;41077;52.956;6.796;2023-05-29T10:23:30;15.80;98.80
55203;DHT22;41077;52.956;6.796;2023-05-29T10:26:06;15.90;98.80
55203;DHT22;41077;52.956;6.796;2023-05-29T10:28:36;16.00;99.10
55203;DHT22;41077;52.956;6.796;2023-05-29T10:31:09;16.10;99.10
55203;DHT22;41077;52.956;6.796;2023-05-29T10:36:35;16.00;99.50
55203;DHT22;41077;52.956;6.796;2023-05-29T10:39:01;16.20;99.10
55203;DHT22;41077;52.956;6.796;2023-05-29T10:41:31;16.20;98.40
55203;DHT22;41077;52.956;6.796;2023-05-29T10:43:59;16.40;98.90
55203;DHT22;41077;52.956;6.796;2023-05-29T10:49:17;16.60;98.30
55203;DHT22;41077;52.956;6.796;2023-05-29T10:51:43;16.50;98.20
55203;DHT22;41077;52.956;6.796;2023-05-29T10:54:10;16.50;98.50
55203;DHT22;41077;52.956;6.796;2023-05-29T10:56:37;16.50;98.60
55203;DHT22;41077;52.956;6.796;2023-05-29T10:59:02;16.60;98.30
55203;DHT22;41077;52.956;6.796;2023-05-29T11:01:29;16.60;97.20
55203;DHT22;41077;52.956;6.796;2023-05-29T11:06:43;17.00;98.00
55203;DHT22;41077;52.956;6.796;2023-05-29T11:09:34;17.00;97.50
55203;DHT22;41077;52.956;6.796;2023-05-29T11:12:23;17.10;96.40
55203;DHT22;41077;52.956;6.796;2023-05-29T11:15:09;17.10;96.20
55203;DHT22;41077;52.956;6.796;2023-05-29T11:17:44;17.00;96.50
55203;DHT22;41077;52.956;6.796;2023-05-29T11:25:25;16.80;96.50
55203;DHT22;41077;52.956;6.796;2023-05-29T11:27:51;16.90;96.70
55203;DHT22;41077;52.956;6.796;2023-05-29T11:30:21;16.90;96.80
55203;DHT22;41077;52.956;6.796;2023-05-29T11:32:48;17.00;96.20
55203;DHT22;41077;52.956;6.796;2023-05-29T11:35:15;17.00;95.10
55203;DHT22;41077;52.956;6.796;2023-05-29T11:37:44;17.20;95.70
55203;DHT22;41077;52.956;6.796;2023-05-29T11:40:12;17.50;95.20
55203;DHT22;41077;52.956;6.796;2023-05-29T11:42:46;17.20;94.60
55203;DHT22;41077;52.956;6.796;2023-05-29T11:45:15;17.00;95.50
55203;DHT22;41077;52.956;6.796;2023-05-29T11:48:10;17.20;95.60
55203;DHT22;41077;52.956;6.796;2023-05-29T11:50:36;17.60;95.10
55203;DHT22;41077;52.956;6.796;2023-05-29T11:53:02;17.50;94.20
55203;DHT22;41077;52.956;6.796;2023-05-29T11:55:28;17.70;94.20
55203;DHT22;41077;52.956;6.796;2023-05-29T11:58:02;17.70;93.10
55203;DHT22;41077;52.956;6.796;2023-05-29T12:00:36;17.70;93.40
55203;DHT22;41077;52.956;6.796;2023-05-29T12:03:03;17.70;93.00
55203;DHT22;41077;52.956;6.796;2023-05-29T12:05:49;17.60;94.00
55203;DHT22;41077;52.956;6.796;2023-05-29T12:08:24;17.80;93.80
55203;DHT22;41077;52.956;6.796;2023-05-29T12:10:51;18.00;93.90
55203;DHT22;41077;52.956;6.796;2023-05-29T12:13:19;18.20;93.00
55203;DHT22;41077;52.956;6.796;2023-05-29T12:15:47;18.20;92.60
55203;DHT22;41077;52.956;6.796;2023-05-29T12:18:13;18.20;92.60
55203;DHT22;41077;52.956;6.796;2023-05-29T12:20:39;18.30;92.20
55203;DHT22;41077;52.956;6.796;2023-05-29T12:23:05;18.20;92.40
55203;DHT22;41077;52.956;6.796;2023-05-29T12:25:33;18.50;92.40
55203;DHT22;41077;52.956;6.796;2023-05-29T12:27:59;18.30;91.80
55203;DHT22;41077;52.956;6.796;2023-05-29T12:30:25;18.30;92.10
55203;DHT22;41077;52.956;6.796;2023-05-29T12:32:52;18.40;92.30
55203;DHT22;41077;52.956;6.796;2023-05-29T12:40:21;18.90;91.40
55203;DHT22;41077;52.956;6.796;2023-05-29T12:42:47;19.10;91.80
55203;DHT22;41077;52.956;6.796;2023-05-29T12:45:14;19.20;90.90
55203;DHT22;41077;52.956;6.796;2023-05-29T12:48:06;19.30;90.40
55203;DHT22;41077;52.956;6.796;2023-05-29T12:50:39;19.70;88.20
55203;DHT22;41077;52.956;6.796;2023-05-29T12:53:12;19.60;87.90
55203;DHT22;41077;52.956;6.796;2023-05-29T12:55:43;19.90;85.40
55203;DHT22;41077;52.956;6.796;2023-05-29T12:58:11;19.90;85.10
55203;DHT22;41077;52.956;6.796;2023-05-29T13:00:41;20.00;84.10
55203;DHT22;41077;52.956;6.796;2023-05-29T13:03:07;20.00;84.20
55203;DHT22;41077;52.956;6.796;2023-05-29T13:05:33;20.00;84.20
55203;DHT22;41077;52.956;6.796;2023-05-29T13:07:59;20.00;85.20
55203;DHT22;41077;52.956;6.796;2023-05-29T13:10:26;20.10;85.70
55203;DHT22;41077;52.956;6.796;2023-05-29T13:12:53;20.50;84.80
55203;DHT22;41077;52.956;6.796;2023-05-29T13:15:21;20.40;83.60
55203;DHT22;41077;52.956;6.796;2023-05-29T13:17:47;19.90;83.90
55203;DHT22;41077;52.956;6.796;2023-05-29T13:20:14;20.00;84.00
55203;DHT22;41077;52.956;6.796;2023-05-29T13:22:41;19.70;82.10
55203;DHT22;41077;52.956;6.796;2023-05-29T13:25:09;19.60;82.40
55203;DHT22;41077;52.956;6.796;2023-05-29T13:27:37;19.40;82.10
55203;DHT22;41077;52.956;6.796;2023-05-29T13:30:04;19.00;81.80
55203;DHT22;41077;52.956;6.796;2023-05-29T13:34:56;18.70;84.20
55203;DHT22;41077;52.956;6.796;2023-05-29T13:37:23;18.70;85.30
55203;DHT22;41077;52.956;6.796;2023-05-29T13:39:48;18.50;83.30
55203;DHT22;41077;52.956;6.796;2023-05-29T13:42:15;18.70;82.90
55203;DHT22;41077;52.956;6.796;2023-05-29T13:44:40;18.90;83.40
55203;DHT22;41077;52.956;6.796;2023-05-29T13:47:06;18.90;82.70
55203;DHT22;41077;52.956;6.796;2023-05-29T13:49:34;18.90;81.40
55203;DHT22;41077;52.956;6.796;2023-05-29T13:52:00;19.20;80.20
55203;DHT22;41077;52.956;6.796;2023-05-29T13:54:25;19.30;78.80
55203;DHT22;41077;52.956;6.796;2023-05-29T13:56:55;19.40;79.00
55203;DHT22;41077;52.956;6.796;2023-05-29T13:59:21;19.50;79.30
55203;DHT22;41077;52.956;6.796;2023-05-29T14:01:47;19.40;77.30
55203;DHT22;41077;52.956;6.796;2023-05-29T14:04:13;19.20;77.40
55203;DHT22;41077;52.956;6.796;2023-05-29T14:06:38;19.10;78.50
55203;DHT22;41077;52.956;6.796;2023-05-29T14:09:04;19.30;79.20
55203;DHT22;41077;52.956;6.796;2023-05-29T14:11:30;19.00;79.50
55203;DHT22;41077;52.956;6.796;2023-05-29T14:16:22;18.90;80.20
55203;DHT22;41077;52.956;6.796;2023-05-29T16:20:55;18.50;79.40
55203;DHT22;41077;52.956;6.796;2023-05-29T16:23:21;18.70;74.90
55203;DHT22;41077;52.956;6.796;2023-05-29T16:25:47;19.30;73.70
55203;DHT22;41077;52.956;6.796;2023-05-29T16:28:12;19.70;71.30
55203;DHT22;41077;52.956;6.796;2023-05-29T16:30:38;20.00;70.90
55203;DHT22;41077;52.956;6.796;2023-05-29T16:33:06;20.40;69.40
55203;DHT22;41077;52.956;6.796;2023-05-29T16:35:31;20.60;69.50
55203;DHT22;41077;52.956;6.796;2023-05-29T16:37:58;20.90;70.00
55203;DHT22;41077;52.956;6.796;2023-05-29T16:40:23;21.30;69.90
55203;DHT22;41077;52.956;6.796;2023-05-29T16:42:50;21.50;68.30
55203;DHT22;41077;52.956;6.796;2023-05-29T16:45:16;21.30;68.30
55203;DHT22;41077;52.956;6.796;2023-05-29T16:47:42;21.60;68.90
55203;DHT22;41077;52.956;6.796;2023-05-29T16:50:08;21.60;69.10
55203;DHT22;41077;52.956;6.796;2023-05-29T16:52:34;21.90;68.70
55203;DHT22;41077;52.956;6.796;2023-05-29T16:55:00;22.00;69.00
55203;DHT22;41077;52.956;6.796;2023-05-29T16:57:28;21.70;67.30
55203;DHT22;41077;52.956;6.796;2023-05-29T16:59:54;21.50;67.80
55203;DHT22;41077;52.956;6.796;2023-05-29T17:02:20;21.40;69.10
55203;DHT22;41077;52.956;6.796;2023-05-29T17:04:46;21.30;69.10
55203;DHT22;41077;52.956;6.796;2023-05-29T17:07:12;21.00;69.20
55203;DHT22;41077;52.956;6.796;2023-05-29T17:12:04;20.50;70.70
